DCA weather

Ronald Reagan Washington National Airport
Washington, District of Columbia, United States

Public forecast

Using degrees Fahrenheit for public forecast. Weather courtesy of forecast.io.

Current aviation weather report (METAR) for Ronald Reagan Washington National Airport

Retrieved 2020/08/07 22:52 UTC (44 minutes ago):

KDCA 072252Z 20006KT 10SM SCT040 BKN220 29/22 A3004 RMK AO2 LTG DSNT NE SLP171 CB DSNT NE MOV E T02890222

Aviation forecast (TAF) for Ronald Reagan Washington National Airport

Retrieved 2020/08/07 18:22 UTC (5 hours ago):

TAF KDCA 071720Z 0718/0824 17005KT P6SM VCTS SCT025CB BKN110 FM080100 09004KT P6SM VCSH SCT025 BKN250 FM080500 VRB03KT P6SM SCT020 BKN035 FM081000 VRB03KT P6SM SCT020 BKN025 FM081300 01004KT P6SM SCT015 BKN250 FM082200 08004KT P6SM SCT050 BKN250